createdAt,value
2023-04-12T00:01:05.898Z,9.35
2023-04-12T00:03:34.477Z,9.34
2023-04-12T00:06:03.896Z,9.29
2023-04-12T00:08:33.930Z,9.26
2023-04-12T00:11:02.877Z,9.24
2023-04-12T00:13:30.642Z,9.23
2023-04-12T00:15:57.667Z,9.18
2023-04-12T00:18:25.793Z,9.13
2023-04-12T00:20:53.526Z,9.13
2023-04-12T00:23:21.003Z,9.18
2023-04-12T00:25:48.420Z,9.17
2023-04-12T00:28:18.979Z,9.15
2023-04-12T00:30:46.205Z,9.10
2023-04-12T00:33:13.407Z,9.12
2023-04-12T00:35:40.532Z,9.13
2023-04-12T00:38:10.868Z,9.13
2023-04-12T00:40:45.018Z,9.14
2023-04-12T00:43:19.095Z,9.21
2023-04-12T00:45:47.332Z,9.20
2023-04-12T00:48:16.229Z,9.22
2023-04-12T00:50:44.979Z,9.29
2023-04-12T00:53:14.066Z,9.31
2023-04-12T00:55:44.190Z,9.30
2023-04-12T00:58:11.206Z,9.21
2023-04-12T01:00:38.236Z,9.20
2023-04-12T01:03:05.682Z,9.15
2023-04-12T01:05:40.815Z,9.09
2023-04-12T01:08:08.120Z,9.07
2023-04-12T01:10:35.427Z,9.06
2023-04-12T01:13:12.085Z,9.09
2023-04-12T01:15:43.939Z,9.08
2023-04-12T01:18:19.883Z,9.11
2023-04-12T01:21:01.915Z,9.12
2023-04-12T01:24:01.809Z,9.13
2023-04-12T01:26:45.081Z,9.11
2023-04-12T01:29:15.913Z,9.08
2023-04-12T01:31:54.552Z,9.05
2023-04-12T01:34:25.433Z,9.00
2023-04-12T01:36:54.702Z,9.00
2023-04-12T01:39:22.036Z,8.99
2023-04-12T01:41:49.951Z,9.05
2023-04-12T01:44:18.015Z,9.07
2023-04-12T01:46:47.714Z,9.04
2023-04-12T01:49:16.234Z,9.06
2023-04-12T01:52:09.945Z,9.10
2023-04-12T01:54:44.913Z,9.13
2023-04-12T01:57:13.519Z,9.11
2023-04-12T01:59:43.621Z,9.12
2023-04-12T02:02:12.235Z,9.12
2023-04-12T02:04:41.801Z,9.07
2023-04-12T02:07:09.622Z,9.06
2023-04-12T02:09:38.496Z,9.07
2023-04-12T02:12:06.737Z,9.12
2023-04-12T02:14:34.110Z,9.12
2023-04-12T02:17:04.556Z,9.10
2023-04-12T02:19:32.798Z,9.11
2023-04-12T02:22:01.157Z,9.10
2023-04-12T02:24:29.579Z,9.14
2023-04-12T02:26:59.206Z,9.20
2023-04-12T02:29:27.552Z,9.16
2023-04-12T02:31:54.618Z,9.05
2023-04-12T02:34:23.940Z,8.93
2023-04-12T02:36:58.851Z,8.85
2023-04-12T02:39:26.073Z,8.75
2023-04-12T02:41:53.037Z,8.68
2023-04-12T02:44:20.477Z,8.62
2023-04-12T02:47:01.598Z,8.55
2023-04-12T02:49:30.932Z,8.57
2023-04-12T02:51:58.528Z,8.57
2023-04-12T02:54:32.305Z,8.59
2023-04-12T02:56:59.628Z,8.57
2023-04-12T02:59:40.390Z,8.61
2023-04-12T03:02:24.211Z,8.65
2023-04-12T03:04:55.019Z,8.69
2023-04-12T03:07:30.612Z,8.59
2023-04-12T03:09:57.548Z,8.72
2023-04-12T03:12:25.728Z,8.75
2023-04-12T03:15:05.047Z,8.80
2023-04-12T03:17:32.230Z,8.82
2023-04-12T03:20:10.312Z,8.82
2023-04-12T03:22:40.974Z,8.81
2023-04-12T03:25:12.841Z,8.84
2023-04-12T03:27:45.767Z,8.85
2023-04-12T03:30:15.963Z,8.88
2023-04-12T03:32:44.297Z,8.91
2023-04-12T03:35:11.748Z,8.93
2023-04-12T03:37:43.016Z,8.96
2023-04-12T03:40:12.023Z,9.01
2023-04-12T03:42:43.075Z,9.05
2023-04-12T03:45:12.623Z,9.09
2023-04-12T03:47:43.192Z,9.15
2023-04-12T03:50:12.636Z,9.20
2023-04-12T03:52:45.211Z,9.26
2023-04-12T03:55:13.730Z,9.31
2023-04-12T03:57:42.180Z,9.38
2023-04-12T04:00:10.290Z,9.43
2023-04-12T04:02:47.526Z,9.50
2023-04-12T04:05:17.001Z,9.55
2023-04-12T04:07:45.816Z,9.61
2023-04-12T04:10:14.305Z,9.72
2023-04-12T04:12:42.982Z,9.77
2023-04-12T04:15:12.351Z,9.85
2023-04-12T04:17:40.555Z,9.91
2023-04-12T04:20:09.219Z,9.99
2023-04-12T04:22:38.479Z,10.06
2023-04-12T04:25:06.444Z,10.12
2023-04-12T04:27:38.665Z,10.20
2023-04-12T04:30:08.114Z,10.27
2023-04-12T04:32:38.844Z,10.37
2023-04-12T04:35:06.648Z,10.44
2023-04-12T04:37:45.418Z,10.52
2023-04-12T04:40:15.431Z,10.59
2023-04-12T04:42:43.349Z,10.65
2023-04-12T04:45:14.782Z,10.72
2023-04-12T04:47:44.270Z,10.81
2023-04-12T04:50:11.399Z,10.82
2023-04-12T04:52:39.553Z,10.88
2023-04-12T04:55:11.809Z,10.91
2023-04-12T04:57:41.867Z,10.98
2023-04-12T05:00:13.775Z,11.05
2023-04-12T05:02:44.277Z,11.14
2023-04-12T05:05:16.159Z,11.24
2023-04-12T05:07:44.923Z,11.32
2023-04-12T05:10:12.254Z,11.42
2023-04-12T05:12:41.932Z,11.48
2023-04-12T05:15:12.212Z,11.61
2023-04-12T05:17:41.121Z,11.70
2023-04-12T05:20:10.922Z,11.81
2023-04-12T05:22:39.282Z,11.87
2023-04-12T05:25:06.905Z,11.97
2023-04-12T05:27:39.319Z,12.02
2023-04-12T05:30:09.217Z,12.13
2023-04-12T05:32:36.361Z,12.19
2023-04-12T05:35:03.728Z,12.26
2023-04-12T05:37:31.376Z,12.30
2023-04-12T05:39:58.374Z,12.36
2023-04-12T05:42:25.548Z,12.42
2023-04-12T05:44:52.648Z,12.53
2023-04-12T05:47:21.819Z,12.60
2023-04-12T05:49:49.372Z,12.68
2023-04-12T05:52:18.229Z,12.76
2023-04-12T05:54:45.415Z,12.84
2023-04-12T05:57:17.852Z,12.94
2023-04-12T05:59:47.326Z,13.01
2023-04-12T06:02:14.455Z,13.06
2023-04-12T06:04:50.153Z,13.14
2023-04-12T06:07:21.493Z,13.20
2023-04-12T06:09:50.053Z,13.27
2023-04-12T06:12:18.000Z,13.32
2023-04-12T06:14:45.122Z,13.39
2023-04-12T06:17:12.356Z,13.46
2023-04-12T06:19:40.405Z,13.52
2023-04-12T06:22:07.312Z,13.56
2023-04-12T06:24:34.668Z,13.64
2023-04-12T06:27:01.966Z,13.70
2023-04-12T06:29:29.113Z,13.70
2023-04-12T06:31:56.321Z,13.77
2023-04-12T06:34:23.355Z,13.85
2023-04-12T06:36:51.717Z,13.89
2023-04-12T06:39:18.655Z,13.92
2023-04-12T06:41:47.545Z,13.99
2023-04-12T06:44:19.338Z,14.06
2023-04-12T06:46:46.760Z,14.13
2023-04-12T06:49:13.910Z,14.18
2023-04-12T06:51:41.095Z,14.23
2023-04-12T06:54:08.061Z,14.23
2023-04-12T06:56:37.326Z,14.26
2023-04-12T06:59:04.340Z,14.32
2023-04-12T07:01:31.589Z,14.39
2023-04-12T07:03:58.945Z,14.45
2023-04-12T07:06:26.455Z,14.47
2023-04-12T07:08:53.484Z,14.57
2023-04-12T07:11:24.662Z,14.63
2023-04-12T07:13:52.015Z,14.65
2023-04-12T07:16:19.133Z,14.70
2023-04-12T07:22:08.007Z,14.81
2023-04-12T07:24:40.207Z,14.90
2023-04-12T07:27:07.457Z,14.93
2023-04-12T07:29:34.588Z,14.97
2023-04-12T07:32:01.613Z,15.04
2023-04-12T07:34:28.875Z,15.11
2023-04-12T07:36:56.384Z,15.12
2023-04-12T07:39:26.410Z,15.23
2023-04-12T07:41:53.577Z,15.26
2023-04-12T07:44:20.615Z,15.33
2023-04-12T07:46:47.703Z,15.37
2023-04-12T07:49:18.394Z,15.45
2023-04-12T07:51:45.430Z,15.46
2023-04-12T07:54:13.348Z,15.57
2023-04-12T07:56:40.540Z,15.62
2023-04-12T07:59:07.710Z,15.69
2023-04-12T08:01:35.074Z,15.77
2023-04-12T08:04:02.747Z,15.85
2023-04-12T08:06:34.481Z,15.92
2023-04-12T08:09:01.496Z,15.96
2023-04-12T08:11:28.847Z,16.06
2023-04-12T08:13:56.056Z,16.07
2023-04-12T08:16:23.361Z,16.11
2023-04-12T08:18:51.596Z,16.22
2023-04-12T08:21:22.281Z,16.24
2023-04-12T08:23:53.128Z,16.26
2023-04-12T08:26:22.840Z,16.26
2023-04-12T08:28:49.872Z,16.32
2023-04-12T08:31:17.920Z,16.38
2023-04-12T08:33:48.229Z,16.42
2023-04-12T08:36:15.847Z,16.47
2023-04-12T08:38:45.975Z,16.44
2023-04-12T08:41:14.522Z,16.49
2023-04-12T08:43:46.431Z,16.50
2023-04-12T08:46:18.536Z,16.60
2023-04-12T08:48:48.693Z,16.65
2023-04-12T08:51:20.205Z,16.70
2023-04-12T08:53:48.617Z,16.80
2023-04-12T08:56:16.620Z,16.85
2023-04-12T08:58:50.343Z,16.89
2023-04-12T09:01:18.805Z,16.92
2023-04-12T09:03:47.062Z,16.94
2023-04-12T09:06:14.373Z,16.95
2023-04-12T09:08:55.198Z,16.96
2023-04-12T09:11:26.935Z,16.98
2023-04-12T09:13:58.914Z,17.01
2023-04-12T09:16:36.293Z,17.08
2023-04-12T09:19:04.197Z,17.16
2023-04-12T09:21:32.655Z,17.22
2023-04-12T09:24:14.924Z,17.31
2023-04-12T09:26:42.500Z,17.34
2023-04-12T09:29:25.678Z,17.39
2023-04-12T09:32:05.123Z,17.43
2023-04-12T09:34:33.420Z,17.46
2023-04-12T09:37:00.435Z,17.50
2023-04-12T09:39:34.749Z,17.54
2023-04-12T09:42:25.072Z,17.60
2023-04-12T09:44:58.698Z,17.62
2023-04-12T09:47:41.834Z,17.69
2023-04-12T09:50:09.834Z,17.73
2023-04-12T09:52:38.602Z,17.76
2023-04-12T09:55:10.672Z,17.76
2023-04-12T09:57:57.204Z,17.74
2023-04-12T10:00:26.938Z,17.79
2023-04-12T10:02:56.762Z,17.77
2023-04-12T10:05:26.928Z,17.89
2023-04-12T10:07:55.271Z,17.97
2023-04-12T10:10:23.112Z,17.99
2023-04-12T10:12:50.838Z,17.99
2023-04-12T10:15:21.050Z,18.06
2023-04-12T10:17:55.788Z,18.17
2023-04-12T10:20:25.553Z,18.20
2023-04-12T10:22:53.772Z,18.24
2023-04-12T10:25:25.970Z,18.30
2023-04-12T10:27:53.672Z,18.34
2023-04-12T10:30:33.846Z,18.37
2023-04-12T10:33:06.976Z,18.39
2023-04-12T10:36:10.969Z,18.44
2023-04-12T10:38:48.395Z,18.43
2023-04-12T10:41:20.274Z,18.41
2023-04-12T10:43:51.350Z,18.43
2023-04-12T10:46:45.276Z,18.50
2023-04-12T10:49:14.153Z,18.44
2023-04-12T10:52:01.896Z,18.50
2023-04-12T10:54:29.754Z,18.50
2023-04-12T10:56:57.655Z,18.55
2023-04-12T10:59:57.568Z,18.69
2023-04-12T11:02:24.712Z,18.75
2023-04-12T11:05:23.754Z,18.87
2023-04-12T11:08:07.359Z,18.87
2023-04-12T11:11:05.747Z,18.85
2023-04-12T11:13:39.089Z,18.96
2023-04-12T11:16:06.765Z,18.95
2023-04-12T11:18:35.833Z,18.99
2023-04-12T11:21:04.785Z,18.96
2023-04-12T11:23:32.855Z,18.95
2023-04-12T11:25:59.895Z,19.00
2023-04-12T11:28:30.002Z,19.06
2023-04-12T11:30:59.010Z,19.08
2023-04-12T11:33:37.259Z,19.14
2023-04-12T11:36:13.451Z,19.17
2023-04-12T11:38:41.291Z,19.17
2023-04-12T11:41:09.195Z,19.16
2023-04-12T11:43:38.870Z,19.10
2023-04-12T11:46:06.694Z,19.14
2023-04-12T11:48:34.062Z,19.18
2023-04-12T11:51:11.035Z,19.17
2023-04-12T11:53:39.246Z,19.15
2023-04-12T11:56:07.002Z,19.20
2023-04-12T11:58:33.992Z,19.33
2023-04-12T12:01:01.564Z,19.53
2023-04-12T12:03:29.040Z,19.78
2023-04-12T12:05:56.747Z,20.10
2023-04-12T12:08:24.780Z,20.47
2023-04-12T12:11:03.969Z,20.95
2023-04-12T12:13:54.029Z,21.66
2023-04-12T12:16:29.119Z,22.28
2023-04-12T12:18:57.387Z,22.97
2023-04-12T12:21:26.424Z,23.65
2023-04-12T12:23:53.541Z,24.30
2023-04-12T12:26:30.641Z,24.92
2023-04-12T12:29:00.567Z,25.45
2023-04-12T12:31:28.693Z,25.99
2023-04-12T12:33:59.036Z,26.56
2023-04-12T12:36:32.394Z,27.16
2023-04-12T12:39:11.592Z,27.86
2023-04-12T12:41:40.114Z,28.32
2023-04-12T12:44:08.316Z,28.78
2023-04-12T12:49:06.202Z,29.53
2023-04-12T12:51:33.336Z,29.81
2023-04-12T12:54:01.301Z,30.03
2023-04-12T12:56:28.302Z,30.28
2023-04-12T12:58:55.327Z,30.44
2023-04-12T13:01:22.391Z,30.38
2023-04-12T13:03:49.629Z,30.37
2023-04-12T13:06:16.668Z,30.53
2023-04-12T13:08:43.551Z,30.65
2023-04-12T13:11:10.952Z,30.58
2023-04-12T13:13:37.875Z,30.49
2023-04-12T13:16:05.473Z,30.54
2023-04-12T13:18:32.624Z,30.58
2023-04-12T13:20:59.656Z,30.69
2023-04-12T13:23:26.696Z,30.67
2023-04-12T13:25:53.870Z,30.65
2023-04-12T13:28:21.591Z,30.69
2023-04-12T13:30:48.922Z,30.86
2023-04-12T13:33:20.050Z,31.07
2023-04-12T13:35:47.248Z,31.22
2023-04-12T13:38:14.187Z,31.24
2023-04-12T13:40:41.199Z,31.23
2023-04-12T13:43:08.885Z,31.12
2023-04-12T13:45:36.195Z,31.04
2023-04-12T13:48:03.538Z,30.97
2023-04-12T13:50:31.237Z,30.92
2023-04-12T13:52:58.158Z,30.83
2023-04-12T13:55:25.528Z,30.72
2023-04-12T13:57:52.651Z,30.70
2023-04-12T14:00:20.233Z,30.74
2023-04-12T14:02:47.307Z,30.76
2023-04-12T14:05:15.132Z,30.83
2023-04-12T14:07:42.358Z,30.94
2023-04-12T14:10:10.035Z,31.00
2023-04-12T14:12:37.099Z,30.96
2023-04-12T14:15:04.998Z,31.00
2023-04-12T14:17:33.006Z,31.03
2023-04-12T14:20:00.649Z,30.95
2023-04-12T14:22:28.207Z,30.42
2023-04-12T14:24:55.609Z,29.74
2023-04-12T14:27:22.707Z,29.23
2023-04-12T14:29:49.700Z,28.95
2023-04-12T14:32:16.825Z,28.78
2023-04-12T14:34:44.313Z,28.66
2023-04-12T14:37:11.264Z,28.56
2023-04-12T14:39:38.354Z,28.55
2023-04-12T14:42:06.240Z,28.60
2023-04-12T14:44:33.228Z,28.43
2023-04-12T14:47:00.331Z,28.02
2023-04-12T14:49:29.471Z,27.69
2023-04-12T14:51:57.948Z,27.46
2023-04-12T14:54:24.907Z,27.13
2023-04-12T14:56:55.842Z,26.63
2023-04-12T14:59:23.565Z,26.06
2023-04-12T15:01:52.798Z,25.53
2023-04-12T15:04:20.251Z,25.01
2023-04-12T15:06:47.452Z,24.57
2023-04-12T15:09:15.857Z,24.18
2023-04-12T15:11:46.685Z,23.86
2023-04-12T15:14:20.612Z,23.55
2023-04-12T15:16:50.947Z,23.24
2023-04-12T15:19:22.949Z,22.95
2023-04-12T15:21:52.378Z,22.71
2023-04-12T15:24:19.897Z,22.50
2023-04-12T15:26:48.723Z,22.28
2023-04-12T15:29:16.711Z,22.07
2023-04-12T15:31:44.138Z,21.82
2023-04-12T15:34:11.878Z,21.51
2023-04-12T15:36:43.794Z,21.19
2023-04-12T15:39:12.654Z,20.82
2023-04-12T15:41:41.884Z,20.49
2023-04-12T15:44:10.104Z,20.20
2023-04-12T15:46:37.090Z,19.94
2023-04-12T15:49:04.052Z,19.68
2023-04-12T15:51:32.324Z,19.45
2023-04-12T15:54:00.049Z,19.18
2023-04-12T15:56:29.756Z,18.98
2023-04-12T15:58:57.907Z,18.75
2023-04-12T16:01:26.583Z,18.53
2023-04-12T16:03:53.974Z,18.33
2023-04-12T16:06:21.166Z,18.17
2023-04-12T16:08:51.897Z,17.97
2023-04-12T16:11:20.485Z,17.75
2023-04-12T16:13:49.186Z,17.52
2023-04-12T16:16:18.366Z,17.35
2023-04-12T16:18:46.331Z,17.15
2023-04-12T16:21:16.593Z,16.97
2023-04-12T16:23:44.522Z,16.81
2023-04-12T16:26:14.475Z,16.63
2023-04-12T16:28:44.481Z,16.48
2023-04-12T16:31:11.865Z,16.32
2023-04-12T16:33:38.955Z,16.20
2023-04-12T16:36:06.313Z,16.06
2023-04-12T16:38:33.324Z,15.96
2023-04-12T16:41:00.337Z,15.88
2023-04-12T16:43:27.564Z,15.76
2023-04-12T16:45:54.554Z,15.70
2023-04-12T16:48:22.921Z,15.61
2023-04-12T16:50:50.526Z,15.41
2023-04-12T16:53:17.661Z,15.41
2023-04-12T16:55:49.011Z,15.32
2023-04-12T16:58:16.361Z,15.21
2023-04-12T17:00:43.366Z,15.14
2023-04-12T17:03:14.166Z,15.08
2023-04-12T17:05:41.536Z,15.01
2023-04-12T17:08:09.862Z,14.95
2023-04-12T17:10:37.528Z,14.89
2023-04-12T17:13:06.692Z,14.83
2023-04-12T17:15:34.462Z,14.77
2023-04-12T17:18:12.476Z,14.74
2023-04-12T17:20:39.701Z,14.69
2023-04-12T17:23:10.427Z,14.65
2023-04-12T17:25:38.726Z,14.61
2023-04-12T17:28:09.195Z,14.57
2023-04-12T17:30:36.856Z,14.52
2023-04-12T17:33:04.346Z,14.44
2023-04-12T17:35:31.875Z,14.42
2023-04-12T17:37:59.121Z,14.39
2023-04-12T17:40:26.233Z,14.35
2023-04-12T17:42:53.526Z,14.29
2023-04-12T17:45:22.043Z,14.24
2023-04-12T17:47:49.636Z,14.22
2023-04-12T17:50:17.003Z,14.19
2023-04-12T17:52:44.553Z,14.15
2023-04-12T17:55:12.956Z,14.13
2023-04-12T17:57:44.434Z,14.08
2023-04-12T18:00:12.187Z,14.06
2023-04-12T18:02:46.013Z,14.05
2023-04-12T18:05:13.562Z,14.01
2023-04-12T18:07:41.316Z,14.01
2023-04-12T18:10:09.922Z,14.00
2023-04-12T18:12:38.792Z,13.93
2023-04-12T18:15:08.404Z,13.94
2023-04-12T18:17:35.436Z,13.91
2023-04-12T18:20:03.122Z,13.88
2023-04-12T18:22:30.596Z,13.83
2023-04-12T18:24:57.756Z,13.81
2023-04-12T18:27:24.954Z,13.78
2023-04-12T18:29:51.911Z,13.76
2023-04-12T18:32:19.024Z,13.74
2023-04-12T18:34:46.300Z,13.69
2023-04-12T18:37:13.284Z,13.66
2023-04-12T18:39:40.709Z,13.62
2023-04-12T18:42:07.694Z,13.57
2023-04-12T18:44:34.676Z,13.57
2023-04-12T18:47:01.827Z,13.53
2023-04-12T18:49:29.605Z,13.51
2023-04-12T18:51:58.814Z,13.46
2023-04-12T18:54:27.734Z,13.44
2023-04-12T18:56:55.118Z,13.39
2023-04-12T18:59:22.312Z,13.34
2023-04-12T19:01:49.345Z,13.29
2023-04-12T19:04:16.907Z,13.26
2023-04-12T19:06:45.295Z,13.22
2023-04-12T19:09:12.397Z,13.21
2023-04-12T19:11:40.045Z,13.19
2023-04-12T19:14:08.335Z,13.17
2023-04-12T19:16:36.296Z,13.17
2023-04-12T19:19:03.320Z,13.16
2023-04-12T19:21:31.169Z,13.13
2023-04-12T19:23:58.503Z,13.12
2023-04-12T19:26:26.197Z,13.10
2023-04-12T19:28:55.768Z,13.06
2023-04-12T19:31:23.924Z,13.02
2023-04-12T19:33:51.033Z,13.00
2023-04-12T19:36:18.370Z,12.97
2023-04-12T19:38:47.942Z,12.97
2023-04-12T19:41:18.157Z,12.96
2023-04-12T19:43:46.365Z,12.93
2023-04-12T19:46:13.780Z,12.91
2023-04-12T19:48:41.065Z,12.88
2023-04-12T19:51:08.145Z,12.87
2023-04-12T19:53:35.081Z,12.85
2023-04-12T19:56:04.387Z,12.73
2023-04-12T19:58:32.240Z,12.81
2023-04-12T20:01:02.296Z,12.80
2023-04-12T20:03:30.252Z,12.80
2023-04-12T20:05:59.128Z,12.78
2023-04-12T20:08:28.555Z,12.76
2023-04-12T20:10:56.462Z,12.75
2023-04-12T20:13:23.827Z,12.73
2023-04-12T20:15:51.246Z,12.71
2023-04-12T20:18:18.268Z,12.69
2023-04-12T20:20:45.409Z,12.67
2023-04-12T20:23:13.866Z,12.67
2023-04-12T20:25:41.841Z,12.64
2023-04-12T20:28:09.555Z,12.63
2023-04-12T20:30:37.023Z,12.62
2023-04-12T20:33:04.641Z,12.61
2023-04-12T20:35:32.211Z,12.58
2023-04-12T20:38:00.753Z,12.59
2023-04-12T20:40:30.072Z,12.57
2023-04-12T20:43:00.130Z,12.56
2023-04-12T20:45:27.350Z,12.54
2023-04-12T20:47:54.304Z,12.53
2023-04-12T20:50:23.079Z,12.53
2023-04-12T20:52:52.412Z,12.50
2023-04-12T20:55:19.641Z,12.49
2023-04-12T20:57:46.808Z,12.48
2023-04-12T21:00:18.310Z,12.45
2023-04-12T21:02:46.533Z,12.44
2023-04-12T21:05:17.309Z,12.43
2023-04-12T21:07:47.033Z,12.42
2023-04-12T21:10:15.051Z,12.42
2023-04-12T21:12:45.180Z,12.40
2023-04-12T21:15:12.443Z,12.38
2023-04-12T21:17:40.847Z,12.37
2023-04-12T21:20:14.585Z,12.37
2023-04-12T21:22:43.311Z,12.35
2023-04-12T21:25:16.750Z,12.36
2023-04-12T21:27:46.141Z,12.38
2023-04-12T21:30:14.107Z,12.38
2023-04-12T21:32:43.064Z,12.38
2023-04-12T21:35:11.360Z,12.39
2023-04-12T21:37:39.560Z,12.37
2023-04-12T21:40:12.563Z,12.34
2023-04-12T21:42:40.892Z,12.32
2023-04-12T21:45:11.731Z,12.30
2023-04-12T21:47:42.445Z,12.30
2023-04-12T21:50:10.912Z,12.31
2023-04-12T21:52:38.948Z,12.29
2023-04-12T21:55:06.663Z,12.28
2023-04-12T21:57:34.705Z,12.27
2023-04-12T22:00:05.752Z,12.27
2023-04-12T22:02:39.149Z,12.27
2023-04-12T22:05:07.756Z,12.26
2023-04-12T22:07:35.400Z,12.22
2023-04-12T22:10:02.695Z,12.18
2023-04-12T22:12:30.386Z,12.16
2023-04-12T22:14:57.750Z,12.12
2023-04-12T22:17:25.103Z,12.10
2023-04-12T22:19:55.397Z,12.06
2023-04-12T22:22:25.871Z,12.04
2023-04-12T22:24:54.010Z,12.01
2023-04-12T22:27:21.354Z,11.97
2023-04-12T22:29:50.689Z,11.95
2023-04-12T22:32:17.751Z,11.92
2023-04-12T22:34:45.019Z,11.90
2023-04-12T22:37:13.723Z,11.86
2023-04-12T22:39:40.748Z,11.85
2023-04-12T22:42:07.919Z,11.83
2023-04-12T22:44:38.488Z,11.78
2023-04-12T22:47:09.136Z,11.76
2023-04-12T22:49:45.072Z,11.74
2023-04-12T22:52:12.285Z,11.70
2023-04-12T22:54:40.332Z,11.67
2023-04-12T22:57:07.457Z,11.64
2023-04-12T22:59:35.021Z,11.60
2023-04-12T23:02:02.477Z,11.56
2023-04-12T23:04:29.680Z,11.53
2023-04-12T23:06:56.624Z,11.51
2023-04-12T23:09:24.194Z,11.47
2023-04-12T23:11:51.807Z,11.45
2023-04-12T23:14:18.812Z,11.43
2023-04-12T23:16:46.334Z,11.40
2023-04-12T23:19:14.709Z,11.37
2023-04-12T23:21:42.332Z,11.33
2023-04-12T23:24:12.222Z,11.31
2023-04-12T23:26:39.579Z,11.29
2023-04-12T23:29:06.658Z,11.24
2023-04-12T23:31:33.886Z,11.22
2023-04-12T23:34:06.251Z,11.18
2023-04-12T23:36:33.934Z,11.15
2023-04-12T23:39:01.544Z,11.13
2023-04-12T23:41:31.712Z,11.10
2023-04-12T23:43:59.544Z,11.07
2023-04-12T23:46:27.233Z,11.05
2023-04-12T23:48:54.349Z,11.03
2023-04-12T23:51:22.233Z,10.98
2023-04-12T23:53:49.231Z,10.97
2023-04-12T23:56:16.588Z,10.93
2023-04-12T23:58:43.559Z,10.92
